Time;durP1;ratioP1;P1;durP2;ratioP2;P2;SDS_P1;SDS_P2;PMS_P1;PMS_P2;Temp;Humidity;BMP_temperature;BMP_pressure;BME280_temperature;BME280_humidity;BME280_pressure;Samples;Min_cycle;Max_cycle;Signal;HPM_P1;HPM_P2
2023/07/10 00:01:26;;;;;;;22.02;11.85;;;19.30;99.90;;;;;;5084573;28;20046;-78
2023/07/10 00:03:53;;;;;;;17.83;12.38;;;19.30;99.90;;;;;;5090460;28;20040;-78
2023/07/10 00:06:19;;;;;;;21.00;12.68;;;19.40;99.90;;;;;;5090422;28;20115;-78
2023/07/10 00:08:44;;;;;;;20.70;13.20;;;19.40;99.90;;;;;;5073848;28;20442;-78
2023/07/10 00:11:15;;;;;;;20.55;12.10;;;19.40;99.90;;;;;;5090348;28;20036;-78
2023/07/10 00:13:40;;;;;;;18.30;12.07;;;19.40;99.90;;;;;;5090247;28;20040;-78
2023/07/10 00:16:13;;;;;;;19.38;11.60;;;19.60;99.90;;;;;;5090318;28;20055;-78
2023/07/10 00:18:39;;;;;;;23.58;12.27;;;19.60;99.90;;;;;;5081592;28;20082;-78
2023/07/10 00:21:04;;;;;;;20.80;13.35;;;19.60;99.90;;;;;;5067828;28;20028;-78
2023/07/10 00:23:30;;;;;;;23.38;12.20;;;19.60;99.90;;;;;;5089876;28;20123;-78
2023/07/10 00:25:56;;;;;;;19.98;12.63;;;19.40;99.90;;;;;;5090217;28;20040;-78
2023/07/10 00:28:21;;;;;;;19.77;13.57;;;19.30;99.90;;;;;;5090233;28;20055;-78
2023/07/10 00:30:49;;;;;;;24.48;13.85;;;19.30;99.90;;;;;;5072973;28;20078;-78
2023/07/10 00:33:17;;;;;;;26.17;13.98;;;19.30;99.90;;;;;;5089892;28;20035;-77
2023/07/10 00:35:43;;;;;;;24.30;14.38;;;19.30;99.90;;;;;;5072234;28;20048;-77
2023/07/10 00:38:25;;;;;;;24.98;14.40;;;19.30;99.90;;;;;;5097226;28;20034;-79
2023/07/10 00:40:51;;;;;;;25.65;14.73;;;19.30;99.90;;;;;;5091447;28;20044;-79
2023/07/10 00:43:29;;;;;;;24.92;16.17;;;19.20;99.90;;;;;;5089293;28;20063;-79
2023/07/10 00:45:56;;;;;;;28.35;18.33;;;19.20;99.90;;;;;;5090393;28;20039;-78
2023/07/10 00:48:40;;;;;;;31.02;19.05;;;19.20;99.90;;;;;;5073172;28;20042;-78
2023/07/10 00:51:18;;;;;;;34.72;20.17;;;19.10;99.90;;;;;;5090148;28;20098;-77
2023/07/10 00:53:45;;;;;;;33.95;23.10;;;19.10;99.90;;;;;;5089875;28;20503;-79
2023/07/10 00:56:17;;;;;;;36.72;24.05;;;19.10;99.90;;;;;;5078253;28;20051;-78
2023/07/10 00:58:45;;;;;;;39.40;24.75;;;19.00;99.90;;;;;;5053341;28;20040;-79
2023/07/10 01:01:14;;;;;;;42.88;25.40;;;18.90;99.90;;;;;;5071712;28;20217;-78
2023/07/10 01:03:40;;;;;;;45.63;24.45;;;19.00;99.90;;;;;;5089820;28;20043;-78
2023/07/10 01:06:14;;;;;;;42.47;25.90;;;19.00;99.90;;;;;;5090110;28;20044;-79
2023/07/10 01:08:42;;;;;;;50.80;27.15;;;19.00;99.90;;;;;;5090053;28;20044;-78
2023/07/10 01:11:08;;;;;;;35.28;24.70;;;18.90;99.90;;;;;;5073331;28;20044;-78
2023/07/10 01:13:38;;;;;;;41.97;26.50;;;18.90;99.90;;;;;;5073012;28;20039;-78
2023/07/10 01:16:04;;;;;;;43.75;26.23;;;18.90;99.90;;;;;;5090367;28;20111;-78
2023/07/10 01:18:30;;;;;;;45.67;27.02;;;18.80;99.90;;;;;;5090256;28;20139;-78
2023/07/10 01:21:07;;;;;;;46.22;26.20;;;18.80;99.90;;;;;;5089992;28;20595;-79
2023/07/10 01:23:32;;;;;;;35.33;25.13;;;18.80;99.90;;;;;;5090144;28;20032;-79
2023/07/10 01:26:01;;;;;;;37.72;24.38;;;18.80;99.90;;;;;;5072527;28;20055;-79
2023/07/10 01:28:28;;;;;;;38.85;24.33;;;18.70;99.90;;;;;;5089393;28;20131;-79
2023/07/10 01:30:55;;;;;;;36.08;24.20;;;18.70;99.90;;;;;;5089297;28;20442;-79
2023/07/10 01:33:26;;;;;;;33.35;23.52;;;18.70;99.90;;;;;;5089948;28;20479;-79
2023/07/10 01:35:55;;;;;;;35.97;23.38;;;18.70;99.90;;;;;;5089801;28;20050;-78
2023/07/10 01:38:26;;;;;;;35.92;23.42;;;18.70;99.90;;;;;;5089188;28;20040;-78
2023/07/10 01:40:54;;;;;;;30.83;22.95;;;18.80;99.90;;;;;;5089234;28;20036;-78
2023/07/10 01:43:20;;;;;;;31.35;22.38;;;18.80;99.90;;;;;;5089283;28;20139;-78
2023/07/10 01:45:47;;;;;;;42.45;24.48;;;18.80;99.90;;;;;;5072890;28;20122;-78
2023/07/10 01:48:15;;;;;;;33.63;23.13;;;18.80;99.90;;;;;;5089882;28;20419;-78
2023/07/10 01:50:41;;;;;;;35.92;23.52;;;18.80;99.90;;;;;;5089885;28;20449;-78
2023/07/10 01:53:09;;;;;;;35.92;23.42;;;18.80;99.90;;;;;;5089433;28;20036;-78
2023/07/10 01:55:43;;;;;;;32.70;21.90;;;18.80;99.90;;;;;;5089446;28;20093;-78
2023/07/10 01:58:11;;;;;;;28.10;21.30;;;18.80;99.90;;;;;;5089516;28;20111;-78
2023/07/10 02:00:37;;;;;;;29.42;22.20;;;18.80;99.90;;;;;;5072680;28;20093;-78
2023/07/10 02:03:02;;;;;;;28.08;20.63;;;18.70;99.90;;;;;;5089460;28;20441;-78
2023/07/10 02:05:28;;;;;;;28.05;20.77;;;18.60;99.90;;;;;;5089783;28;20052;-78
2023/07/10 02:07:54;;;;;;;31.90;22.83;;;18.60;99.90;;;;;;5089410;28;20071;-78
2023/07/10 02:10:19;;;;;;;26.48;21.45;;;18.50;99.90;;;;;;5089177;28;20120;-78
2023/07/10 02:12:45;;;;;;;29.83;21.33;;;18.50;99.90;;;;;;5090145;28;20040;-78
2023/07/10 02:15:10;;;;;;;28.02;21.17;;;18.50;99.90;;;;;;5093013;28;20044;-79
2023/07/10 02:17:36;;;;;;;28.17;20.83;;;18.60;99.90;;;;;;5093379;28;20036;-79
2023/07/10 02:20:02;;;;;;;24.77;19.80;;;18.50;99.90;;;;;;5076080;28;20036;-79
2023/07/10 02:22:28;;;;;;;28.77;20.77;;;18.50;99.90;;;;;;5093104;28;20047;-78
2023/07/10 02:24:53;;;;;;;30.08;21.00;;;18.50;99.90;;;;;;5075853;28;20036;-79
2023/07/10 02:27:19;;;;;;;27.95;20.65;;;18.50;99.90;;;;;;5074595;28;20047;-78
2023/07/10 02:29:44;;;;;;;27.38;20.08;;;18.50;99.90;;;;;;5091262;28;20453;-79
2023/07/10 02:32:11;;;;;;;29.33;21.02;;;18.40;99.90;;;;;;5091408;28;20142;-78
2023/07/10 02:34:36;;;;;;;28.80;20.02;;;18.40;99.90;;;;;;5092435;28;20044;-79
2023/07/10 02:37:02;;;;;;;25.65;20.15;;;18.40;99.90;;;;;;5092898;28;20494;-78
2023/07/10 02:39:27;;;;;;;27.95;20.05;;;18.40;99.90;;;;;;5091657;28;20032;-78
2023/07/10 02:41:53;;;;;;;26.98;19.52;;;18.40;99.90;;;;;;5092174;28;20039;-78
2023/07/10 02:44:18;;;;;;;28.45;20.40;;;18.40;99.90;;;;;;5092288;28;20040;-78
2023/07/10 02:46:44;;;;;;;25.30;20.48;;;18.40;99.90;;;;;;5092585;28;20040;-78
2023/07/10 02:49:09;;;;;;;27.40;19.90;;;18.50;99.90;;;;;;5092449;28;20135;-78
2023/07/10 02:51:35;;;;;;;27.50;20.52;;;18.50;99.90;;;;;;5075363;28;20151;-78
2023/07/10 02:54:11;;;;;;;27.48;19.95;;;18.50;99.90;;;;;;5092102;28;20071;-78
2023/07/10 02:56:36;;;;;;;28.83;19.52;;;18.50;99.90;;;;;;5091501;28;20077;-78
2023/07/10 02:59:02;;;;;;;23.42;18.42;;;18.50;99.90;;;;;;5090907;28;20131;-78
2023/07/10 03:01:27;;;;;;;23.30;17.77;;;18.50;99.90;;;;;;5092184;28;20040;-78
2023/07/10 03:03:53;;;;;;;25.63;17.70;;;18.50;99.90;;;;;;5091734;28;20054;-79
2023/07/10 03:06:20;;;;;;;27.05;17.20;;;18.50;99.90;;;;;;5092382;28;20036;-79
2023/07/10 03:08:47;;;;;;;24.45;18.35;;;18.60;99.90;;;;;;5092283;28;20119;-78
2023/07/10 03:11:14;;;;;;;26.75;18.70;;;18.60;99.90;;;;;;5092375;28;20399;-78
2023/07/10 03:13:39;;;;;;;21.40;17.27;;;18.60;99.90;;;;;;5075318;28;20558;-78
2023/07/10 03:16:08;;;;;;;23.20;16.33;;;18.70;99.90;;;;;;5075120;28;20132;-79
2023/07/10 03:18:34;;;;;;;21.35;14.60;;;18.70;99.90;;;;;;5091929;28;20028;-78
2023/07/10 03:20:59;;;;;;;19.52;14.70;;;18.60;99.90;;;;;;5084115;28;20036;-78
2023/07/10 03:23:26;;;;;;;16.20;13.32;;;18.60;99.90;;;;;;5070044;28;20040;-79
2023/07/10 03:25:51;;;;;;;19.13;15.60;;;18.60;99.90;;;;;;5069813;28;20419;-78
2023/07/10 03:28:17;;;;;;;21.23;15.70;;;18.60;99.90;;;;;;5071677;28;20043;-78
2023/07/10 03:30:43;;;;;;;25.00;16.52;;;18.60;99.90;;;;;;5054884;28;20044;-79
2023/07/10 03:33:12;;;;;;;18.40;14.68;;;18.60;99.90;;;;;;5071403;28;20044;-79
2023/07/10 03:35:38;;;;;;;22.08;15.73;;;18.60;99.90;;;;;;5055732;28;20392;-78
2023/07/10 03:38:03;;;;;;;21.45;15.40;;;18.70;99.90;;;;;;5075362;28;20042;-79
2023/07/10 03:40:29;;;;;;;19.88;13.80;;;18.70;99.90;;;;;;5090372;28;20044;-79
2023/07/10 03:42:54;;;;;;;17.73;13.63;;;18.60;99.90;;;;;;5090473;28;20036;-79
2023/07/10 03:45:20;;;;;;;18.73;14.80;;;18.70;99.90;;;;;;5091662;28;20035;-79
2023/07/10 03:47:45;;;;;;;20.35;13.82;;;18.70;99.90;;;;;;5091514;28;20544;-79
2023/07/10 03:50:12;;;;;;;19.98;15.02;;;18.70;99.90;;;;;;5091927;28;20130;-79
2023/07/10 03:52:37;;;;;;;17.98;14.07;;;18.70;99.90;;;;;;5091630;28;20399;-79
2023/07/10 03:55:03;;;;;;;19.15;14.88;;;18.70;99.90;;;;;;5091129;28;20044;-79
2023/07/10 03:57:29;;;;;;;22.90;15.35;;;18.60;99.90;;;;;;5091205;28;20032;-79
2023/07/10 03:59:54;;;;;;;20.17;14.93;;;18.60;99.90;;;;;;5074034;28;20032;-79
2023/07/10 04:02:20;;;;;;;21.50;14.27;;;18.70;99.90;;;;;;5074416;28;20036;-78
2023/07/10 04:04:45;;;;;;;18.77;15.15;;;18.70;99.90;;;;;;5091169;28;20035;-79
2023/07/10 04:07:11;;;;;;;20.65;14.80;;;18.70;99.90;;;;;;5091356;28;20028;-78
2023/07/10 04:09:36;;;;;;;20.55;14.60;;;18.60;99.90;;;;;;5091093;28;20039;-79
2023/07/10 04:12:02;;;;;;;20.95;13.93;;;18.60;99.90;;;;;;5090921;28;20036;-78
2023/07/10 04:14:28;;;;;;;17.38;13.60;;;18.60;99.90;;;;;;5090645;28;20032;-79
2023/07/10 04:16:53;;;;;;;19.63;14.43;;;18.60;99.90;;;;;;5090639;28;20043;-79
2023/07/10 04:19:20;;;;;;;15.25;13.65;;;18.60;99.90;;;;;;5090849;28;20036;-79
2023/07/10 04:21:45;;;;;;;15.95;13.48;;;18.70;99.90;;;;;;5090783;28;20071;-79
2023/07/10 04:24:12;;;;;;;20.35;14.23;;;18.70;99.90;;;;;;5090666;28;20062;-78
2023/07/10 04:26:37;;;;;;;18.10;13.55;;;18.70;99.90;;;;;;5090530;28;20036;-78
2023/07/10 04:29:05;;;;;;;23.00;16.77;;;18.80;99.90;;;;;;5073965;28;20567;-78
2023/07/10 04:31:31;;;;;;;20.45;16.38;;;18.80;99.90;;;;;;5071442;28;20037;-78
2023/07/10 04:33:57;;;;;;;17.60;15.15;;;18.80;99.90;;;;;;5076220;28;20068;-78
2023/07/10 04:36:24;;;;;;;25.00;16.13;;;18.90;99.90;;;;;;5090141;28;20036;-78
2023/07/10 04:38:50;;;;;;;22.45;15.65;;;18.80;99.90;;;;;;5091132;28;20671;-79
2023/07/10 04:41:21;;;;;;;20.38;14.60;;;18.90;99.90;;;;;;5090516;28;20086;-79
2023/07/10 04:43:48;;;;;;;16.52;13.07;;;19.00;99.90;;;;;;5090126;28;20043;-79
2023/07/10 04:46:15;;;;;;;22.65;14.18;;;19.00;99.90;;;;;;5090993;28;20043;-79
2023/07/10 04:48:44;;;;;;;16.80;13.20;;;19.10;99.90;;;;;;5089913;28;20043;-79
2023/07/10 04:51:11;;;;;;;15.57;11.55;;;19.00;99.90;;;;;;5090469;28;20040;-79
2023/07/10 04:53:37;;;;;;;15.95;12.50;;;19.00;99.90;;;;;;5090359;28;20046;-79
2023/07/10 04:56:04;;;;;;;14.73;10.23;;;19.00;99.90;;;;;;5090900;28;20036;-79
2023/07/10 04:58:45;;;;;;;11.65;10.00;;;19.00;99.90;;;;;;5089951;28;20047;-79
2023/07/10 05:01:11;;;;;;;10.88;8.93;;;18.90;99.90;;;;;;5073521;28;20035;-79
2023/07/10 05:03:37;;;;;;;13.10;9.02;;;18.90;99.90;;;;;;5090328;28;20403;-79
2023/07/10 05:06:02;;;;;;;10.88;8.50;;;18.80;99.90;;;;;;5090621;28;20438;-79
2023/07/10 05:08:29;;;;;;;10.95;7.90;;;18.80;99.90;;;;;;5090823;28;20096;-79
2023/07/10 05:10:55;;;;;;;11.43;7.38;;;18.70;99.90;;;;;;5089497;28;20036;-79
2023/07/10 05:13:23;;;;;;;12.18;7.18;;;18.80;99.90;;;;;;5089089;28;20460;-80
2023/07/10 05:15:49;;;;;;;12.68;6.60;;;18.80;99.90;;;;;;5090519;28;20499;-79
2023/07/10 05:18:15;;;;;;;9.68;7.13;;;18.80;99.90;;;;;;5090187;28;20028;-79
2023/07/10 05:20:44;;;;;;;8.90;6.72;;;18.80;99.90;;;;;;5090268;28;20032;-79
2023/07/10 05:23:09;;;;;;;12.23;6.85;;;18.80;99.90;;;;;;5073161;28;20036;-79
2023/07/10 05:25:35;;;;;;;13.25;7.00;;;19.00;99.90;;;;;;5090404;28;20043;-79
2023/07/10 05:28:01;;;;;;;15.68;6.53;;;19.00;99.90;;;;;;5091009;28;20044;-79
2023/07/10 05:30:28;;;;;;;12.10;6.78;;;19.10;99.90;;;;;;5089864;28;20040;-78
2023/07/10 05:32:54;;;;;;;9.68;5.95;;;19.10;99.90;;;;;;5089859;28;20442;-79
2023/07/10 05:35:19;;;;;;;11.07;5.88;;;19.20;99.90;;;;;;5090111;28;20050;-80
2023/07/10 05:37:45;;;;;;;7.80;5.65;;;19.20;99.90;;;;;;5090189;28;20036;-79
2023/07/10 05:40:11;;;;;;;10.18;5.38;;;19.30;99.90;;;;;;5090353;28;20032;-79
2023/07/10 05:42:38;;;;;;;8.82;5.35;;;19.30;99.90;;;;;;5088558;28;20044;-78
2023/07/10 05:45:04;;;;;;;7.55;5.18;;;19.30;99.90;;;;;;5088434;28;20104;-79
2023/07/10 05:47:29;;;;;;;11.48;5.57;;;19.40;99.90;;;;;;5091766;28;20044;-78
2023/07/10 05:49:55;;;;;;;9.57;5.53;;;19.40;99.90;;;;;;5094444;28;20411;-77
2023/07/10 05:52:20;;;;;;;10.80;5.63;;;19.40;99.90;;;;;;5094474;28;20411;-78
2023/07/10 05:54:46;;;;;;;11.95;5.65;;;19.40;99.90;;;;;;5076726;28;20052;-79
2023/07/10 05:57:12;;;;;;;7.70;5.15;;;19.40;99.90;;;;;;5077913;28;20036;-79
2023/07/10 05:59:37;;;;;;;7.25;4.75;;;19.50;99.90;;;;;;5093713;28;20032;-79
2023/07/10 06:02:03;;;;;;;10.18;5.40;;;19.40;99.90;;;;;;5074368;28;20043;-79
2023/07/10 06:04:28;;;;;;;9.63;5.10;;;19.50;99.90;;;;;;5082047;28;20032;-79
2023/07/10 06:06:54;;;;;;;8.80;5.20;;;19.50;99.90;;;;;;5093856;28;20044;-79
2023/07/10 06:09:20;;;;;;;10.05;5.63;;;19.50;99.90;;;;;;5094170;28;20415;-78
2023/07/10 06:11:45;;;;;;;8.02;6.15;;;19.70;99.90;;;;;;5093457;28;20047;-79
2023/07/10 06:14:11;;;;;;;8.75;5.05;;;19.70;99.90;;;;;;5093202;28;20035;-79
2023/07/10 06:16:37;;;;;;;9.50;5.05;;;19.70;99.90;;;;;;5076770;28;20134;-78
2023/07/10 06:19:02;;;;;;;8.63;4.35;;;19.80;99.90;;;;;;5093796;28;20039;-78
2023/07/10 06:21:28;;;;;;;7.18;3.33;;;19.80;99.90;;;;;;5093118;28;20114;-78
2023/07/10 06:23:54;;;;;;;9.40;3.50;;;19.60;99.90;;;;;;5093058;28;20071;-78
2023/07/10 06:26:19;;;;;;;8.40;3.10;;;19.50;99.90;;;;;;5093371;28;20547;-79
2023/07/10 06:28:45;;;;;;;9.43;3.45;;;19.50;99.90;;;;;;5076552;28;20040;-78
2023/07/10 06:31:11;;;;;;;6.70;3.38;;;19.40;99.90;;;;;;5093293;28;20028;-78
2023/07/10 06:33:38;;;;;;;6.30;3.67;;;19.50;99.90;;;;;;5094175;28;20143;-78
2023/07/10 06:36:05;;;;;;;8.38;3.30;;;19.60;99.90;;;;;;5092827;28;20431;-78
2023/07/10 06:38:31;;;;;;;8.95;4.00;;;19.80;99.90;;;;;;5071343;28;20036;-78
2023/07/10 06:40:57;;;;;;;6.30;3.25;;;20.00;99.90;;;;;;5071812;28;20047;-79
2023/07/10 06:43:23;;;;;;;9.88;3.05;;;20.10;99.90;;;;;;5087613;28;20495;-78
2023/07/10 06:45:50;;;;;;;10.27;3.65;;;20.30;99.90;;;;;;5089064;28;20044;-78
2023/07/10 06:48:16;;;;;;;9.52;3.58;;;20.40;99.90;;;;;;5081527;28;20033;-79
2023/07/10 06:50:55;;;;;;;9.25;3.45;;;20.40;99.90;;;;;;5090452;28;20055;-77
2023/07/10 06:53:21;;;;;;;8.52;3.33;;;20.50;99.90;;;;;;5083479;28;20047;-78
2023/07/10 06:56:13;;;;;;;7.75;3.17;;;20.70;99.90;;;;;;5089198;28;20105;-78
2023/07/10 06:58:40;;;;;;;9.68;2.92;;;20.80;99.90;;;;;;5083673;28;20501;-78
2023/07/10 07:01:05;;;;;;;6.32;2.97;;;20.90;99.90;;;;;;5091858;28;20122;-78
2023/07/10 07:03:31;;;;;;;8.30;3.20;;;21.00;99.90;;;;;;5082421;28;20458;-78
2023/07/10 07:05:57;;;;;;;8.52;3.20;;;21.10;99.90;;;;;;5087317;28;20035;-78
2023/07/10 07:08:24;;;;;;;6.50;3.13;;;21.30;99.90;;;;;;5090951;28;20031;-78
2023/07/10 07:10:52;;;;;;;6.78;3.08;;;21.40;99.90;;;;;;5083749;28;20082;-78
2023/07/10 07:13:19;;;;;;;9.43;3.13;;;21.50;99.90;;;;;;5077371;28;20110;-78
2023/07/10 07:15:52;;;;;;;7.15;3.00;;;21.50;99.90;;;;;;5085362;28;20052;-78
2023/07/10 07:18:17;;;;;;;10.77;3.00;;;21.60;99.90;;;;;;5085530;28;20434;-78
2023/07/10 07:20:43;;;;;;;6.38;2.85;;;21.50;99.90;;;;;;5065588;28;20040;-78
2023/07/10 07:23:08;;;;;;;7.75;2.88;;;21.60;99.90;;;;;;5062015;28;20403;-78
2023/07/10 07:25:34;;;;;;;7.90;2.92;;;21.70;99.90;;;;;;5094137;28;20090;-78
2023/07/10 07:28:00;;;;;;;6.20;2.42;;;21.90;99.90;;;;;;5075442;28;20115;-77
2023/07/10 07:30:27;;;;;;;11.02;3.00;;;21.90;99.90;;;;;;5091762;28;20150;-78
2023/07/10 07:32:53;;;;;;;10.98;2.97;;;22.00;99.90;;;;;;5080410;28;20043;-78
2023/07/10 07:35:18;;;;;;;6.90;2.75;;;22.10;99.90;;;;;;5082803;28;20041;-78
2023/07/10 07:37:44;;;;;;;10.65;3.00;;;22.10;99.90;;;;;;5091170;28;20071;-77
2023/07/10 07:40:10;;;;;;;7.05;2.50;;;22.00;99.90;;;;;;5083961;28;20052;-78
2023/07/10 07:42:36;;;;;;;8.32;2.20;;;21.90;99.90;;;;;;5077148;28;20119;-78
2023/07/10 07:45:02;;;;;;;5.63;2.35;;;22.00;99.90;;;;;;5076729;28;20558;-78
2023/07/10 07:47:29;;;;;;;7.35;2.20;;;22.20;99.90;;;;;;5081622;28;20084;-78
2023/07/10 07:49:55;;;;;;;5.60;2.40;;;22.30;99.90;;;;;;5096262;28;20032;-77
2023/07/10 07:52:20;;;;;;;6.65;2.40;;;22.20;99.90;;;;;;5090788;28;20452;-77
2023/07/10 07:54:48;;;;;;;9.05;3.13;;;22.30;99.90;;;;;;5084364;28;20040;-77
2023/07/10 07:57:14;;;;;;;7.25;2.67;;;22.40;99.90;;;;;;5085195;28;20151;-77
2023/07/10 07:59:39;;;;;;;8.38;2.33;;;22.40;99.90;;;;;;5077281;28;20048;-77
2023/07/10 08:02:06;;;;;;;6.93;2.50;;;22.20;99.90;;;;;;5085439;28;20771;-77
2023/07/10 08:04:31;;;;;;;8.32;2.25;;;22.30;99.90;;;;;;5081942;28;20096;-77
2023/07/10 08:06:57;;;;;;;7.13;2.50;;;22.50;99.90;;;;;;5084965;28;20064;-77
2023/07/10 08:09:24;;;;;;;6.53;2.50;;;22.60;99.90;;;;;;5081440;28;20056;-78
2023/07/10 08:11:49;;;;;;;7.00;2.30;;;22.70;99.90;;;;;;5089938;28;20054;-76
2023/07/10 08:14:15;;;;;;;6.68;2.33;;;22.60;99.90;;;;;;5100246;28;20032;-77
2023/07/10 08:16:40;;;;;;;8.55;2.53;;;22.70;99.90;;;;;;5087950;28;20036;-77
2023/07/10 08:19:06;;;;;;;8.77;2.63;;;22.90;99.90;;;;;;5096912;28;20066;-77
2023/07/10 08:21:31;;;;;;;7.22;2.47;;;23.10;99.90;;;;;;5105440;28;20020;-77
2023/07/10 08:23:57;;;;;;;10.13;2.53;;;23.20;99.90;;;;;;5108721;28;20020;-78
2023/07/10 08:26:22;;;;;;;6.57;2.22;;;23.20;99.90;;;;;;5105174;28;20020;-78
2023/07/10 08:28:49;;;;;;;7.38;2.25;;;23.30;99.90;;;;;;5101173;28;20040;-78
2023/07/10 08:31:15;;;;;;;7.93;2.30;;;23.00;99.90;;;;;;5101032;28;20058;-77
2023/07/10 08:33:41;;;;;;;9.82;2.55;;;23.10;99.90;;;;;;5098350;28;20048;-78
2023/07/10 08:36:07;;;;;;;6.13;2.25;;;23.30;99.90;;;;;;5091040;28;20040;-78
2023/07/10 08:38:34;;;;;;;6.65;2.25;;;23.40;99.90;;;;;;5096744;28;20088;-78
2023/07/10 08:41:09;;;;;;;9.77;2.80;;;23.70;99.90;;;;;;5104770;28;20047;-78
2023/07/10 08:43:40;;;;;;;8.00;2.58;;;23.70;99.90;;;;;;5094438;28;20507;-78
2023/07/10 08:46:14;;;;;;;5.55;2.20;;;23.90;99.90;;;;;;5087305;28;20051;-78
2023/07/10 08:48:58;;;;;;;9.05;2.20;;;24.10;99.90;;;;;;5094959;28;20531;-78
2023/07/10 08:51:52;;;;;;;7.47;2.30;;;24.10;99.90;;;;;;5095980;28;20096;-78
2023/07/10 08:54:18;;;;;;;8.98;2.72;;;23.90;99.90;;;;;;5078037;28;20048;-79
2023/07/10 08:56:54;;;;;;;7.07;2.40;;;24.00;99.90;;;;;;5095027;28;20036;-78
2023/07/10 08:59:34;;;;;;;6.88;2.47;;;23.90;99.90;;;;;;5099694;28;20059;-79
2023/07/10 09:02:00;;;;;;;6.78;2.47;;;23.70;99.90;;;;;;5079018;28;20580;-78
2023/07/10 09:04:26;;;;;;;9.25;2.85;;;23.50;99.90;;;;;;5092802;28;20044;-77
2023/07/10 09:06:56;;;;;;;9.13;2.78;;;23.30;99.90;;;;;;5097155;28;20032;-78
2023/07/10 09:09:35;;;;;;;8.25;2.38;;;23.40;99.90;;;;;;5078342;28;20399;-79
2023/07/10 09:12:24;;;;;;;9.18;2.63;;;23.50;99.90;;;;;;5095041;28;20028;-79
2023/07/10 09:15:04;;;;;;;6.68;2.13;;;23.60;99.90;;;;;;5093909;28;20055;-78
2023/07/10 09:17:39;;;;;;;6.20;2.53;;;23.70;99.90;;;;;;5095874;28;20039;-80
2023/07/10 09:20:10;;;;;;;9.57;2.85;;;23.70;99.90;;;;;;5097138;28;20525;-79
2023/07/10 09:22:38;;;;;;;6.72;2.63;;;23.80;99.90;;;;;;5100561;28;20123;-78
2023/07/10 09:25:14;;;;;;;8.50;2.40;;;23.90;99.90;;;;;;5098941;28;20122;-79
2023/07/10 09:27:46;;;;;;;7.10;2.45;;;24.00;99.90;;;;;;5100657;28;20430;-79
2023/07/10 09:30:18;;;;;;;5.75;2.42;;;24.10;99.90;;;;;;5080548;28;20039;-79
2023/07/10 09:32:43;;;;;;;8.35;2.35;;;24.10;99.90;;;;;;5087616;28;20102;-78
2023/07/10 09:35:09;;;;;;;11.02;2.72;;;24.10;99.90;;;;;;5108012;28;20040;-80
2023/07/10 09:37:36;;;;;;;9.15;2.30;;;24.30;99.90;;;;;;5102782;28;20036;-79
2023/07/10 09:40:32;;;;;;;10.20;3.00;;;24.50;99.90;;;;;;5107476;28;20036;-80
2023/07/10 09:43:06;;;;;;;7.05;2.40;;;24.60;99.90;;;;;;5108088;28;20059;-80
2023/07/10 09:45:38;;;;;;;7.90;2.47;;;24.40;99.90;;;;;;5109957;28;20039;-79
2023/07/10 09:48:34;;;;;;;8.05;3.00;;;24.50;99.90;;;;;;5094764;28;20035;-79
2023/07/10 09:51:06;;;;;;;7.90;2.53;;;24.20;99.90;;;;;;5099700;28;20051;-80
2023/07/10 09:53:45;;;;;;;8.35;2.50;;;24.10;99.90;;;;;;5105545;28;20036;-79
2023/07/10 09:56:26;;;;;;;12.45;2.53;;;24.10;99.90;;;;;;5116764;28;20115;-78
2023/07/10 09:58:56;;;;;;;8.30;2.35;;;24.30;99.90;;;;;;5101311;28;20085;-79
2023/07/10 10:01:30;;;;;;;8.32;3.15;;;24.40;99.90;;;;;;5103205;28;20036;-80
2023/07/10 10:03:55;;;;;;;8.88;2.65;;;24.20;99.90;;;;;;5102454;28;20040;-81
2023/07/10 10:06:27;;;;;;;11.77;3.15;;;24.30;99.90;;;;;;5106319;28;20039;-79
2023/07/10 10:08:53;;;;;;;9.40;3.15;;;24.40;99.90;;;;;;5097498;28;20119;-79
2023/07/10 10:11:34;;;;;;;7.47;2.55;;;24.40;99.90;;;;;;5082234;28;20421;-78
2023/07/10 10:14:02;;;;;;;7.68;2.28;;;24.50;99.90;;;;;;5101498;28;20052;-78
2023/07/10 10:16:39;;;;;;;7.28;2.65;;;24.60;99.90;;;;;;5103348;28;20036;-80
2023/07/10 10:19:12;;;;;;;8.45;2.33;;;24.70;99.90;;;;;;5093675;28;20040;-79
2023/07/10 10:21:39;;;;;;;6.90;2.45;;;24.80;99.90;;;;;;5097490;28;20036;-79
2023/07/10 10:24:09;;;;;;;9.43;2.50;;;24.70;99.90;;;;;;5078785;28;20075;-80
2023/07/10 10:26:55;;;;;;;7.07;2.40;;;24.60;99.90;;;;;;5079195;28;20036;-80
2023/07/10 10:29:49;;;;;;;7.90;2.67;;;24.10;99.90;;;;;;5096261;28;20036;-79
2023/07/10 10:32:25;;;;;;;7.63;2.35;;;23.60;99.90;;;;;;5098741;28;20113;-79
2023/07/10 10:34:55;;;;;;;8.85;2.90;;;23.40;99.90;;;;;;5097018;28;20028;-79
2023/07/10 10:37:45;;;;;;;8.85;2.33;;;23.30;99.90;;;;;;5097022;28;20174;-81
2023/07/10 10:40:39;;;;;;;8.85;2.33;;;23.50;99.90;;;;;;5079157;28;20039;-80
2023/07/10 10:43:22;;;;;;;7.83;2.33;;;23.80;99.90;;;;;;5102522;28;20055;-79
2023/07/10 10:46:18;;;;;;;7.20;2.15;;;23.90;99.90;;;;;;5082968;28;20064;-78
2023/07/10 10:49:12;;;;;;;9.60;2.10;;;23.90;99.90;;;;;;5095328;28;20092;-80
2023/07/10 10:52:18;;;;;;;9.80;2.42;;;23.80;99.90;;;;;;5099454;28;20086;-79
2023/07/10 10:55:11;;;;;;;9.57;2.55;;;23.60;99.90;;;;;;5078379;28;20051;-80
2023/07/10 10:58:02;;;;;;;7.47;2.30;;;23.60;99.90;;;;;;5096402;28;20441;-80
2023/07/10 11:00:54;;;;;;;9.95;2.45;;;24.00;99.90;;;;;;5093550;28;20044;-80
2023/07/10 11:03:31;;;;;;;11.32;2.58;;;24.30;99.90;;;;;;5099412;28;20088;-79
2023/07/10 11:06:15;;;;;;;7.85;2.30;;;24.20;99.90;;;;;;5080035;28;20055;-78
2023/07/10 11:08:46;;;;;;;11.77;2.63;;;24.20;99.90;;;;;;5075478;28;20068;-81
2023/07/10 11:11:26;;;;;;;8.80;2.88;;;24.50;99.90;;;;;;5096264;28;20122;-81
2023/07/10 11:13:52;;;;;;;9.82;2.33;;;24.90;99.90;;;;;;5089248;28;20047;-79
2023/07/10 11:16:18;;;;;;;9.07;2.35;;;24.90;99.90;;;;;;5070651;28;20036;-78
2023/07/10 11:18:45;;;;;;;9.98;2.20;;;24.80;99.90;;;;;;5084090;28;20377;-80
2023/07/10 11:21:11;;;;;;;8.40;2.30;;;24.50;99.90;;;;;;5093918;28;20103;-80
2023/07/10 11:23:44;;;;;;;7.32;2.20;;;24.20;99.90;;;;;;5086136;28;20032;-80
2023/07/10 11:26:15;;;;;;;8.80;2.58;;;24.40;99.90;;;;;;5088236;28;20043;-79
2023/07/10 11:28:57;;;;;;;7.38;2.22;;;24.80;99.90;;;;;;5102619;28;20101;-80
2023/07/10 11:31:34;;;;;;;10.15;2.22;;;25.30;99.90;;;;;;5084547;28;20040;-79
2023/07/10 11:34:06;;;;;;;8.55;2.05;;;25.70;99.90;;;;;;5102049;28;20036;-80
2023/07/10 11:36:37;;;;;;;6.72;2.22;;;26.20;99.90;;;;;;5089740;28;20039;-80
2023/07/10 11:39:05;;;;;;;6.40;1.90;;;26.60;99.90;;;;;;5078145;28;20032;-80
2023/07/10 11:41:35;;;;;;;8.50;2.28;;;26.20;99.90;;;;;;5073498;28;20036;-80
2023/07/10 11:44:29;;;;;;;8.75;2.20;;;25.90;99.90;;;;;;5083257;28;20033;-79
2023/07/10 11:47:01;;;;;;;8.10;2.05;;;25.60;99.90;;;;;;5087893;28;20040;-79
2023/07/10 11:49:51;;;;;;;8.50;1.95;;;25.80;99.90;;;;;;5090236;28;20097;-80
2023/07/10 11:52:16;;;;;;;7.90;1.98;;;26.00;99.90;;;;;;5089690;28;20048;-79
2023/07/10 11:54:46;;;;;;;4.50;1.65;;;25.80;99.90;;;;;;5073991;28;20114;-80
2023/07/10 11:57:23;;;;;;;11.38;3.45;;;25.50;99.90;;;;;;5094505;28;20044;-80
2023/07/10 11:59:57;;;;;;;6.72;1.90;;;25.60;99.90;;;;;;5091322;28;20044;-80
2023/07/10 12:02:43;;;;;;;7.63;1.90;;;25.90;99.90;;;;;;5084658;28;20071;-78
2023/07/10 12:05:31;;;;;;;9.43;2.00;;;26.40;99.90;;;;;;5085517;28;20056;-81
2023/07/10 12:08:15;;;;;;;7.95;1.75;;;26.70;99.90;;;;;;5097856;28;20679;-80
2023/07/10 12:10:47;;;;;;;8.80;2.30;;;27.00;99.90;;;;;;5087145;28;20045;-80
2023/07/10 12:13:23;;;;;;;8.35;2.08;;;27.50;99.90;;;;;;5083518;28;20036;-78
2023/07/10 12:15:51;;;;;;;8.13;2.00;;;27.60;99.90;;;;;;5084186;28;20035;-79
2023/07/10 12:18:34;;;;;;;5.85;1.75;;;27.00;99.90;;;;;;5083419;28;20045;-78
2023/07/10 12:21:01;;;;;;;7.00;1.90;;;26.30;99.90;;;;;;5081425;28;20509;-79
2023/07/10 12:23:27;;;;;;;6.20;1.83;;;25.60;99.90;;;;;;5081393;28;20032;-79
2023/07/10 12:25:55;;;;;;;10.52;1.98;;;25.50;99.90;;;;;;5095528;28;20027;-80
2023/07/10 12:28:22;;;;;;;5.00;1.60;;;25.60;99.90;;;;;;5092056;28;20043;-78
2023/07/10 12:30:53;;;;;;;7.03;1.63;;;25.90;99.90;;;;;;5091428;28;20133;-82
2023/07/10 12:33:37;;;;;;;4.90;1.63;;;25.90;99.90;;;;;;5092168;28;20043;-79
2023/07/10 12:36:03;;;;;;;;;;;26.10;99.90;;;;;;5090045;28;20041;-79
2023/07/10 12:38:31;;;;;;;4.53;1.10;;;26.60;99.90;;;;;;5080583;28;19941;-79
2023/07/10 12:40:57;;;;;;;4.45;1.50;;;26.90;99.90;;;;;;5070663;28;20085;-76
2023/07/10 12:43:25;;;;;;;5.38;1.40;;;27.00;99.90;;;;;;5077765;28;20036;-81
2023/07/10 12:45:59;;;;;;;7.22;1.45;;;27.20;99.90;;;;;;5080437;28;20514;-78
2023/07/10 12:48:29;;;;;;;4.85;1.65;;;27.20;99.90;;;;;;5077439;28;20036;-80
2023/07/10 12:50:59;;;;;;;5.82;1.33;;;26.80;99.90;;;;;;5079829;28;20103;-79